Time;durP1;ratioP1;P1;durP2;ratioP2;P2;SDS_P1;SDS_P2;PMS_P1;PMS_P2;Temp;Humidity;BMP_temperature;BMP_pressure;BME280_temperature;BME280_humidity;BME280_pressure;Samples;Min_cycle;Max_cycle;Signal;HPM_P1;HPM_P2
2023/04/25 00:04:33;;;;;;;5.00;2.72;;;12.50;99.90;;;;;;10476623;28;20392;-84
2023/04/25 00:09:54;;;;;;;2.85;2.25;;;12.50;99.90;;;;;;10470904;28;20261;-84
2023/04/25 00:15:15;;;;;;;4.25;2.65;;;12.50;99.90;;;;;;10466175;28;20402;-85
2023/04/25 00:20:37;;;;;;;2.22;2.03;;;12.50;99.90;;;;;;10429326;28;20224;-85
2023/04/25 00:25:58;;;;;;;3.35;2.38;;;12.60;99.90;;;;;;10428554;28;20242;-85
2023/04/25 00:31:20;;;;;;;3.22;2.20;;;12.50;99.90;;;;;;10470140;28;20397;-84
2023/04/25 00:36:41;;;;;;;2.40;2.00;;;;;;;;;;10456096;28;20203;-85
2023/04/25 00:42:03;;;;;;;5.07;2.38;;;;;;;;;;10450181;28;20235;-85
2023/04/25 00:47:26;;;;;;;4.32;2.40;;;;;;;;;;10462764;28;20196;-85
2023/04/25 00:52:47;;;;;;;3.47;2.28;;;;;;;;;;10430832;28;20234;-85
2023/04/25 00:58:09;;;;;;;3.10;2.80;;;;;;;;;;10406250;28;20202;-84
2023/04/25 01:03:35;;;;;;;4.85;2.30;;;;;;;;;;10414845;28;20244;-84
2023/04/25 01:08:56;;;;;;;2.58;2.38;;;;;;;;;;10400375;28;20268;-85
2023/04/25 01:14:18;;;;;;;2.33;1.92;;;;;;;;;;10427365;28;20212;-85
2023/04/25 01:19:40;;;;;;;2.75;2.30;;;;;;;;;;10427007;28;20242;-84
2023/04/25 01:25:01;;;;;;;4.93;2.90;;;;;;;;;;10426812;28;20228;-85
2023/04/25 01:30:24;;;;;;;2.95;2.10;;;;;;;;;;10397961;28;20490;-85
2023/04/25 01:35:47;;;;;;;2.30;2.10;;;;;;;;;;10436751;28;20218;-85
2023/04/25 01:41:08;;;;;;;2.42;2.20;;;;;;;;;;10440004;28;20222;-84
2023/04/25 01:46:30;;;;;;;3.08;2.67;;;;;;;;;;10415486;28;20280;-84
2023/04/25 01:51:52;;;;;;;3.30;2.00;;;;;;;;;;10398625;28;20210;-84
2023/04/25 01:57:13;;;;;;;2.90;2.60;;;;;;;;;;10417499;28;20204;-85
2023/04/25 02:02:37;;;;;;;2.97;2.60;;;;;;;;;;10453940;28;20245;-83
2023/04/25 02:08:01;;;;;;;2.93;2.70;;;;;;;;;;10447201;28;20232;-84
2023/04/25 02:13:24;;;;;;;3.80;3.20;;;;;;;;;;10480657;28;20241;-84
2023/04/25 02:18:55;;;;;;;5.53;3.30;;;11.60;99.90;;;;;;10411280;28;20201;-85
2023/04/25 02:24:16;;;;;;;3.37;3.00;;;11.50;99.90;;;;;;10452559;28;20266;-84
2023/04/25 02:29:38;;;;;;;3.00;2.80;;;11.10;99.90;;;;;;10464824;28;20203;-84
2023/04/25 02:35:03;;;;;;;3.30;2.73;;;;;;;;;;10420325;28;20245;-84
2023/04/25 02:40:24;;;;;;;3.53;3.23;;;11.00;99.90;;;;;;10446105;28;20233;-84
2023/04/25 02:45:47;;;;;;;3.50;3.13;;;10.70;99.90;;;;;;10479064;28;20199;-84
2023/04/25 02:51:09;;;;;;;5.13;3.30;;;10.50;99.90;;;;;;10399142;28;20200;-84
2023/04/25 02:56:30;;;;;;;3.37;3.00;;;10.40;99.90;;;;;;10433959;28;20438;-84
2023/04/25 03:01:52;;;;;;;5.23;3.30;;;10.30;99.90;;;;;;10437333;28;20223;-84
2023/04/25 03:07:13;;;;;;;5.30;3.03;;;10.40;99.90;;;;;;10435272;28;20494;-84
2023/04/25 03:12:35;;;;;;;3.70;3.30;;;10.30;99.90;;;;;;10464281;28;20205;-85
2023/04/25 03:17:57;;;;;;;6.33;3.50;;;10.40;99.90;;;;;;10428661;28;20206;-84
2023/04/25 03:23:18;;;;;;;4.97;3.33;;;10.40;99.90;;;;;;10432329;28;20301;-84
2023/04/25 03:28:40;;;;;;;6.57;3.00;;;10.40;99.90;;;;;;10463612;28;20264;-84
2023/04/25 03:34:01;;;;;;;3.17;2.73;;;10.30;99.90;;;;;;10463107;28;20204;-84
2023/04/25 03:39:22;;;;;;;3.90;3.00;;;10.30;99.90;;;;;;10457209;28;20216;-84
2023/04/25 03:44:45;;;;;;;5.40;3.00;;;10.30;99.90;;;;;;10463658;28;20201;-84
2023/04/25 03:50:07;;;;;;;3.33;3.03;;;10.20;99.90;;;;;;10433899;28;20435;-84
2023/04/25 03:55:30;;;;;;;6.20;3.00;;;;;;;;;;10454212;28;20201;-84
2023/04/25 04:00:52;;;;;;;3.57;3.00;;;9.90;99.90;;;;;;10448776;28;20403;-84
2023/04/25 04:06:13;;;;;;;4.77;3.13;;;10.00;99.90;;;;;;10441189;28;20414;-84
2023/04/25 04:11:39;;;;;;;4.07;3.27;;;10.00;99.90;;;;;;10408626;28;20215;-83
2023/04/25 04:17:01;;;;;;;3.57;2.83;;;;;;;;;;10407049;28;20398;-83
2023/04/25 04:22:24;;;;;;;7.43;3.40;;;;;;;;;;10432096;28;20233;-84
2023/04/25 04:27:54;;;;;;;3.43;3.10;;;;;;;;;;10462928;28;20424;-84
2023/04/25 04:33:39;;;;;;;3.47;2.57;;;;;;;;;;10455668;28;20511;-83
2023/04/25 04:39:03;;;;;;;3.37;3.07;;;;;;;;;;10416510;28;20198;-84
2023/04/25 04:44:35;;;;;;;3.67;3.00;;;;;;;;;;10437292;28;20263;-84
2023/04/25 04:50:04;;;;;;;4.30;2.80;;;;;;;;;;10436549;28;20200;-83
2023/04/25 04:55:36;;;;;;;3.13;2.80;;;;;;;;;;10450095;28;20218;-84
2023/04/25 05:01:05;;;;;;;4.10;3.20;;;;;;;;;;10414540;28;20226;-84
2023/04/25 05:06:33;;;;;;;3.53;2.93;;;;;;;;;;10428165;28;20232;-84
2023/04/25 05:12:16;;;;;;;4.47;3.67;;;;;;;;;;10393135;28;20209;-84
2023/04/25 05:18:07;;;;;;;4.03;3.00;;;;;;;;;;10470608;28;20240;-84
2023/04/25 05:23:52;;;;;;;8.40;3.60;;;10.10;99.90;;;;;;10434806;28;20241;-84
2023/04/25 05:29:33;;;;;;;4.67;3.20;;;;;;;;;;10380574;28;20204;-84
2023/04/25 05:35:15;;;;;;;4.57;2.70;;;;;;;;;;10413103;28;20205;-82
2023/04/25 05:40:41;;;;;;;5.50;2.63;;;;;;;;;;10429656;28;20454;-84
2023/04/25 05:46:10;;;;;;;3.83;2.20;;;;;;;;;;10437135;28;20397;-83
2023/04/25 05:51:50;;;;;;;4.47;2.20;;;;;;;;;;10344619;28;20235;-83
2023/04/25 05:57:32;;;;;;;3.67;2.70;;;;;;;;;;10275890;28;20290;-83
2023/04/25 06:02:54;;;;;;;5.40;2.77;;;;;;;;;;10349170;28;20299;-83
2023/04/25 06:08:15;;;;;;;5.30;2.77;;;9.80;99.90;;;;;;10366965;28;20236;-84
2023/04/25 06:13:36;;;;;;;6.20;2.67;;;10.00;99.90;;;;;;10351480;28;20232;-83
2023/04/25 06:18:58;;;;;;;2.83;2.53;;;10.00;99.90;;;;;;10327164;28;20323;-83
2023/04/25 06:24:20;;;;;;;7.17;2.17;;;10.10;99.90;;;;;;10357343;28;20241;-83
2023/04/25 06:29:42;;;;;;;4.40;1.77;;;10.30;99.90;;;;;;10347725;28;20219;-83
2023/04/25 06:35:05;;;;;;;3.23;1.53;;;10.40;99.90;;;;;;10430254;28;20506;-83
2023/04/25 06:40:27;;;;;;;1.87;1.57;;;10.40;99.90;;;;;;10425974;28;20232;-83
2023/04/25 06:45:50;;;;;;;2.07;1.67;;;10.60;99.90;;;;;;10423685;28;20225;-83
2023/04/25 06:51:15;;;;;;;4.93;1.97;;;10.70;99.90;;;;;;10430931;28;20265;-83
2023/04/25 06:56:38;;;;;;;4.43;1.80;;;10.90;99.90;;;;;;10423343;28;20221;-83
2023/04/25 07:02:06;;;;;;;9.27;2.37;;;10.80;99.90;;;;;;10404914;28;20271;-83
2023/04/25 07:07:28;;;;;;;5.77;2.47;;;10.60;99.90;;;;;;10395807;28;20239;-83
2023/04/25 07:12:51;;;;;;;2.60;1.90;;;10.70;99.90;;;;;;10473136;28;20203;-82
2023/04/25 07:18:13;;;;;;;5.97;3.00;;;;;;;;;;10396567;28;20252;-87
2023/04/25 07:23:37;;;;;;;2.77;1.90;;;10.90;99.90;;;;;;10439743;28;20242;-82
2023/04/25 07:29:04;;;;;;;3.37;2.43;;;11.20;99.90;;;;;;10415945;28;20204;-82
2023/04/25 07:34:25;;;;;;;6.30;3.70;;;11.70;99.90;;;;;;10415654;28;20298;-82
2023/04/25 07:39:48;;;;;;;2.67;1.83;;;11.60;99.90;;;;;;10442202;28;20195;-83
2023/04/25 07:45:10;;;;;;;3.50;1.93;;;11.60;99.90;;;;;;10430859;28;20198;-82
2023/04/25 07:50:33;;;;;;;4.63;1.97;;;11.60;99.90;;;;;;10430788;28;20212;-85
2023/04/25 07:55:54;;;;;;;3.97;1.93;;;11.50;99.90;;;;;;10416548;28;20212;-83
2023/04/25 08:01:16;;;;;;;3.83;2.10;;;11.50;99.90;;;;;;10414471;28;20266;-84
2023/04/25 08:06:46;;;;;;;4.80;2.30;;;11.40;99.90;;;;;;10429343;28;20231;-83
2023/04/25 08:12:13;;;;;;;3.00;1.87;;;12.30;99.90;;;;;;10413213;28;20211;-87
2023/04/25 08:17:34;;;;;;;3.23;2.20;;;13.00;99.90;;;;;;10428851;28;20219;-83
2023/04/25 08:22:56;;;;;;;3.07;2.20;;;13.00;99.90;;;;;;10396204;28;20244;-83
2023/04/25 08:28:31;;;;;;;3.17;2.20;;;12.60;99.90;;;;;;10412104;28;20204;-83
2023/04/25 08:33:54;;;;;;;2.73;2.07;;;12.10;99.90;;;;;;10383314;28;20203;-86
2023/04/25 08:39:25;;;;;;;5.43;1.80;;;11.80;99.90;;;;;;10419031;28;20242;-82
2023/04/25 08:45:10;;;;;;;2.90;2.13;;;11.30;99.90;;;;;;10345629;28;20252;-82
2023/04/25 08:50:36;;;;;;;2.93;2.10;;;11.00;99.90;;;;;;10323771;28;20228;-83
2023/04/25 08:55:59;;;;;;;1.90;1.70;;;10.80;99.90;;;;;;10336243;28;20226;-82
2023/04/25 09:01:20;;;;;;;3.77;2.17;;;11.00;99.90;;;;;;10347504;28;20432;-86
2023/04/25 09:06:47;;;;;;;3.27;1.80;;;10.90;99.90;;;;;;10365933;28;20267;-81
2023/04/25 09:12:09;;;;;;;4.90;2.03;;;10.90;99.90;;;;;;10340353;28;20250;-83
2023/04/25 09:17:30;;;;;;;2.20;2.00;;;11.00;99.90;;;;;;10345675;28;20283;-83
2023/04/25 09:23:11;;;;;;;4.80;2.43;;;11.10;99.90;;;;;;10422531;28;20273;-84
2023/04/25 09:28:34;;;;;;;4.37;2.47;;;11.20;99.90;;;;;;10396546;28;20222;-84
2023/04/25 09:34:02;;;;;;;3.47;2.40;;;11.20;99.90;;;;;;10434914;28;20406;-85
2023/04/25 09:39:33;;;;;;;5.43;3.83;;;11.30;99.90;;;;;;10422004;28;20210;-84
2023/04/25 09:45:05;;;;;;;4.03;2.30;;;;;;;;;;10434334;28;20422;-83
2023/04/25 09:50:30;;;;;;;2.67;2.07;;;11.60;99.90;;;;;;10458021;28;20203;-85
2023/04/25 09:56:03;;;;;;;4.63;3.10;;;11.80;99.90;;;;;;10393697;28;20494;-83
2023/04/25 10:01:26;;;;;;;2.47;1.77;;;11.90;99.90;;;;;;10420173;28;20290;-83
2023/04/25 10:07:06;;;;;;;3.70;1.90;;;12.00;99.90;;;;;;10418644;28;20245;-84
2023/04/25 10:12:33;;;;;;;5.93;2.10;;;12.20;99.90;;;;;;10418393;28;20208;-84
2023/04/25 10:17:56;;;;;;;3.73;2.20;;;12.50;99.90;;;;;;10400679;28;20225;-81
2023/04/25 10:23:18;;;;;;;5.27;2.10;;;12.60;99.90;;;;;;10432193;28;20226;-85
2023/04/25 10:28:59;;;;;;;3.97;2.17;;;12.60;99.90;;;;;;10433675;28;20200;-83
2023/04/25 10:34:25;;;;;;;5.03;1.60;;;12.60;99.90;;;;;;10448002;28;20218;-83
2023/04/25 10:39:46;;;;;;;5.55;1.80;;;12.80;99.90;;;;;;10459458;28;20571;-85
2023/04/25 10:45:08;;;;;;;4.13;1.95;;;12.80;99.90;;;;;;10422871;28;20245;-82
2023/04/25 10:50:38;;;;;;;3.33;1.80;;;12.70;99.90;;;;;;10419451;28;20203;-83
2023/04/25 10:56:00;;;;;;;4.53;3.03;;;12.50;99.90;;;;;;10405435;28;20216;-83
2023/04/25 11:01:25;;;;;;;4.53;2.07;;;12.30;99.90;;;;;;10422699;28;20246;-82
2023/04/25 11:06:55;;;;;;;4.18;2.20;;;11.90;99.90;;;;;;10462496;28;20231;-83
2023/04/25 11:12:21;;;;;;;5.73;2.20;;;11.70;99.90;;;;;;10421972;28;20549;-83
2023/04/25 11:17:44;;;;;;;2.53;2.13;;;11.60;99.90;;;;;;10414171;28;20213;-83
2023/04/25 11:23:06;;;;;;;11.93;6.47;;;11.50;99.90;;;;;;10432374;28;20256;-83
2023/04/25 11:28:27;;;;;;;5.70;2.77;;;11.50;99.90;;;;;;10455973;28;20411;-80
2023/04/25 11:33:49;;;;;;;3.57;1.60;;;11.60;99.90;;;;;;10445185;28;20200;-82
2023/04/25 11:39:10;;;;;;;3.07;1.70;;;11.60;99.90;;;;;;10424247;28;20219;-83
2023/04/25 11:44:31;;;;;;;3.90;1.67;;;11.60;99.90;;;;;;10416562;28;20250;-83
2023/04/25 11:49:53;;;;;;;2.20;1.40;;;11.90;99.90;;;;;;10393368;28;20197;-82
2023/04/25 11:55:16;;;;;;;4.33;2.27;;;12.30;99.90;;;;;;10414886;28;20210;-83
2023/04/25 12:00:42;;;;;;;5.95;2.00;;;12.60;99.90;;;;;;10398481;28;20200;-83
2023/04/25 12:06:04;;;;;;;2.67;2.30;;;12.90;99.90;;;;;;10436667;28;20251;-84
2023/04/25 12:11:25;;;;;;;5.28;2.13;;;12.90;99.90;;;;;;10424780;28;20189;-84
2023/04/25 12:16:48;;;;;;;3.35;1.80;;;12.60;99.90;;;;;;10422729;28;20209;-82
2023/04/25 12:22:23;;;;;;;2.60;1.60;;;12.30;99.90;;;;;;10402295;28;20301;-83
2023/04/25 12:27:46;;;;;;;4.50;2.10;;;12.10;99.90;;;;;;10445792;28;20281;-83
2023/04/25 12:33:08;;;;;;;5.70;1.77;;;11.90;99.90;;;;;;10423467;28;20399;-84
2023/04/25 12:38:31;;;;;;;2.10;1.87;;;11.80;99.90;;;;;;10400878;28;20307;-83
2023/04/25 12:43:52;;;;;;;6.40;3.27;;;11.80;99.90;;;;;;10399867;28;20244;-83
2023/04/25 12:49:14;;;;;;;3.77;2.20;;;11.80;99.90;;;;;;10440259;28;20242;-83
2023/04/25 12:54:38;;;;;;;4.47;1.80;;;11.90;99.90;;;;;;10391587;28;20540;-84
2023/04/25 13:00:00;;;;;;;4.20;1.70;;;12.00;99.90;;;;;;10380744;28;20201;-83
2023/04/25 13:05:21;;;;;;;5.53;1.73;;;12.10;99.90;;;;;;10382379;28;20233;-83
2023/04/25 13:10:42;;;;;;;2.63;1.50;;;12.30;99.90;;;;;;10395748;28;20202;-83
2023/04/25 13:16:04;;;;;;;7.90;2.30;;;12.40;99.90;;;;;;10363734;28;20224;-84
2023/04/25 13:21:26;;;;;;;4.72;2.30;;;12.60;99.90;;;;;;10380348;28;20303;-83
2023/04/25 13:26:48;;;;;;;3.50;2.27;;;12.40;99.90;;;;;;10345259;28;20221;-80
2023/04/25 13:32:09;;;;;;;1.90;1.60;;;12.40;99.90;;;;;;10367535;28;20522;-82
2023/04/25 13:37:32;;;;;;;4.07;1.70;;;12.30;99.90;;;;;;10373123;28;20485;-82
2023/04/25 13:42:55;;;;;;;6.87;2.30;;;12.30;99.90;;;;;;10413981;28;20349;-81
2023/04/25 13:48:17;;;;;;;8.97;3.03;;;12.00;99.90;;;;;;10406554;28;20237;-81
2023/04/25 13:53:39;;;;;;;10.00;3.40;;;11.60;99.90;;;;;;10401846;28;20204;-81
2023/04/25 13:58:59;;;;;;;10.20;3.57;;;11.30;99.90;;;;;;10402177;28;20232;-82
2023/04/25 14:04:21;;;;;;;12.20;3.53;;;;;;;;;;10377028;28;20261;-82
2023/04/25 14:09:43;;;;;;;10.37;3.57;;;;;;;;;;10392950;28;20240;-82
2023/04/25 14:15:05;;;;;;;15.37;4.50;;;;;;;;;;10377042;28;20204;-81
2023/04/25 14:20:27;;;;;;;16.23;4.60;;;10.60;99.90;;;;;;10405868;28;20198;-81
2023/04/25 14:25:48;;;;;;;18.43;6.23;;;10.50;99.90;;;;;;10386639;28;20530;-82
2023/04/25 14:31:10;;;;;;;15.33;4.30;;;10.30;99.90;;;;;;10377485;28;20254;-82
2023/04/25 14:36:32;;;;;;;16.23;4.80;;;10.00;99.90;;;;;;10386613;28;20209;-80
2023/04/25 14:41:53;;;;;;;13.87;5.00;;;;;;;;;;10353162;28;20302;-83
2023/04/25 14:47:15;;;;;;;20.23;7.03;;;9.70;99.90;;;;;;10434913;28;20216;-81
2023/04/25 14:52:37;;;;;;;16.77;6.00;;;9.70;99.90;;;;;;10389897;28;20196;-85
2023/04/25 14:57:58;;;;;;;13.67;3.93;;;9.70;99.90;;;;;;10391463;28;20514;-81
2023/04/25 15:03:20;;;;;;;12.53;4.60;;;9.70;99.90;;;;;;10371614;28;20238;-84
2023/04/25 15:08:42;;;;;;;15.87;7.60;;;9.60;99.90;;;;;;10386610;28;20425;-83
2023/04/25 15:14:03;;;;;;;12.48;4.90;;;9.90;99.90;;;;;;10388319;28;20522;-83
2023/04/25 15:19:26;;;;;;;17.67;5.70;;;10.00;99.90;;;;;;10391494;28;20210;-82
2023/04/25 15:24:47;;;;;;;12.00;4.83;;;10.10;99.90;;;;;;10379076;28;20224;-83
2023/04/25 15:30:14;;;;;;;9.23;4.10;;;10.10;98.90;;;;;;10380281;28;20206;-83
2023/04/25 15:35:36;;;;;;;14.27;5.83;;;10.10;98.70;;;;;;10379693;28;20207;-83
2023/04/25 15:40:57;;;;;;;13.60;5.37;;;10.10;99.10;;;;;;10381213;28;20199;-83
2023/04/25 15:46:20;;;;;;;10.50;6.07;;;10.00;99.40;;;;;;10386191;28;20248;-82
2023/04/25 15:51:42;;;;;;;14.07;4.70;;;10.00;98.60;;;;;;10357109;28;20510;-83
2023/04/25 15:57:03;;;;;;;16.60;7.17;;;10.00;98.10;;;;;;10377390;28;20519;-83
2023/04/25 16:02:25;;;;;;;24.03;11.17;;;10.00;98.60;;;;;;10394356;28;20254;-83
2023/04/25 16:07:46;;;;;;;16.27;6.07;;;10.10;98.10;;;;;;10385944;28;20254;-83
2023/04/25 16:13:08;;;;;;;16.37;4.47;;;10.20;99.10;;;;;;10383330;28;20207;-82
2023/04/25 16:18:29;;;;;;;10.60;3.77;;;10.20;96.70;;;;;;10396010;28;20201;-83
2023/04/25 16:23:51;;;;;;;16.53;5.83;;;10.00;92.10;;;;;;10424881;28;20222;-82
2023/04/25 16:29:14;;;;;;;14.80;5.60;;;9.80;88.70;;;;;;10350944;28;20204;-82
2023/04/25 16:34:35;;;;;;;13.43;5.40;;;9.80;93.50;;;;;;10367472;28;20195;-82
2023/04/25 16:39:56;;;;;;;14.70;4.43;;;9.70;90.40;;;;;;10353587;28;20490;-82
2023/04/25 16:45:19;;;;;;;21.40;9.37;;;9.80;80.90;;;;;;10382592;28;20223;-81
2023/04/25 16:50:40;;;;;;;18.37;5.07;;;9.70;85.60;;;;;;10396919;28;20287;-81
2023/04/25 16:56:02;;;;;;;15.93;5.13;;;9.70;81.70;;;;;;10428282;28;20205;-82
2023/04/25 17:01:23;;;;;;;10.33;3.30;;;9.70;81.90;;;;;;10405378;28;20508;-84
2023/04/25 17:06:44;;;;;;;12.33;4.10;;;9.60;72.90;;;;;;10427517;28;20248;-81
2023/04/25 17:12:06;;;;;;;20.00;5.50;;;9.60;78.20;;;;;;10392821;28;20240;-81
2023/04/25 17:17:28;;;;;;;19.60;5.27;;;9.50;74.60;;;;;;10403384;28;20194;-82
2023/04/25 17:22:49;;;;;;;11.57;4.73;;;9.60;63.00;;;;;;10413877;28;20230;-83
2023/04/25 17:28:11;;;;;;;15.77;3.90;;;9.50;59.20;;;;;;10435508;28;20222;-82
2023/04/25 17:33:32;;;;;;;13.77;4.63;;;9.50;57.60;;;;;;10440693;28;20233;-83
2023/04/25 17:38:54;;;;;;;12.20;3.27;;;9.40;54.20;;;;;;10420660;28;20202;-83
2023/04/25 17:44:15;;;;;;;40.23;24.67;;;9.30;44.30;;;;;;10427126;28;20237;-83
2023/04/25 17:49:37;;;;;;;73.93;46.43;;;9.20;42.00;;;;;;10397240;28;20202;-82
2023/04/25 17:54:58;;;;;;;29.40;17.47;;;9.00;43.50;;;;;;10424226;28;20420;-82
2023/04/25 18:00:20;;;;;;;16.30;6.90;;;9.00;49.70;;;;;;10379582;28;20198;-82
2023/04/25 18:05:42;;;;;;;11.67;3.33;;;9.00;53.50;;;;;;10425397;28;20231;-83
2023/04/25 18:11:03;;;;;;;13.57;3.33;;;8.90;46.80;;;;;;10432234;28;20208;-83
2023/04/25 18:16:24;;;;;;;12.70;4.37;;;8.70;45.70;;;;;;10439116;28;20436;-82
2023/04/25 18:21:47;;;;;;;18.57;4.70;;;8.70;50.40;;;;;;10394780;28;20207;-83
2023/04/25 18:27:09;;;;;;;12.43;5.23;;;8.70;46.90;;;;;;10424977;28;20199;-82
2023/04/25 18:32:30;;;;;;;26.60;14.13;;;8.60;1.00;;;;;;10419199;28;20239;-81
2023/04/25 18:37:53;;;;;;;120.57;75.37;;;8.60;1.00;;;;;;10420581;28;20204;-82
2023/04/25 18:43:14;;;;;;;29.63;17.90;;;8.50;1.00;;;;;;10342637;28;20260;-83
2023/04/25 18:48:36;;;;;;;11.30;6.27;;;8.50;57.00;;;;;;10367856;28;20288;-83
2023/04/25 18:53:57;;;;;;;13.23;4.03;;;8.50;61.10;;;;;;10415150;28;20281;-82
2023/04/25 18:59:19;;;;;;;11.37;2.90;;;8.50;68.10;;;;;;10380984;28;20287;-82
2023/04/25 19:04:41;;;;;;;10.13;3.17;;;8.50;65.50;;;;;;10369901;28;20250;-82
2023/04/25 19:10:03;;;;;;;10.27;3.30;;;8.40;70.60;;;;;;10404554;28;20294;-81
2023/04/25 19:15:24;;;;;;;14.20;3.20;;;8.40;68.90;;;;;;10382093;28;20242;-83
2023/04/25 19:20:46;;;;;;;12.20;4.97;;;8.30;76.80;;;;;;10387608;28;20225;-82
2023/04/25 19:26:07;;;;;;;15.00;4.57;;;8.20;79.40;;;;;;10395931;28;20519;-82
2023/04/25 19:31:28;;;;;;;14.37;4.93;;;8.30;90.70;;;;;;10382174;28;20205;-83
2023/04/25 19:36:52;;;;;;;10.43;5.00;;;8.30;91.60;;;;;;10381573;28;20203;-82
2023/04/25 19:42:14;;;;;;;14.03;4.80;;;8.40;92.30;;;;;;10416361;28;20229;-83
2023/04/25 19:47:38;;;;;;;11.67;4.40;;;8.40;99.90;;;;;;10421961;28;20200;-83
2023/04/25 19:53:00;;;;;;;11.93;5.20;;;;;;;;;;10393374;28;20287;-83
2023/04/25 19:58:21;;;;;;;15.07;5.40;;;;;;;;;;10372225;28;20208;-82
2023/04/25 20:03:44;;;;;;;12.47;5.00;;;;;;;;;;10379847;28;20239;-82
2023/04/25 20:09:08;;;;;;;15.57;4.40;;;;;;;;;;10380960;28;20291;-83
2023/04/25 20:14:30;;;;;;;11.60;4.80;;;;;;;;;;10353719;28;20202;-82
2023/04/25 20:19:53;;;;;;;10.77;4.17;;;;;;;;;;10396096;28;20524;-83
2023/04/25 20:25:15;;;;;;;11.60;5.07;;;;;;;;;;10385107;28;20223;-82
2023/04/25 20:30:37;;;;;;;18.00;5.70;;;;;;;;;;10394113;28;20589;-82
2023/04/25 20:35:59;;;;;;;15.07;5.90;;;;;;;;;;10398584;28;20196;-82
2023/04/25 20:41:20;;;;;;;10.10;3.93;;;;;;;;;;10388973;28;20277;-83
2023/04/25 20:46:43;;;;;;;13.30;4.27;;;;;;;;;;10346933;28;20228;-83
2023/04/25 20:52:05;;;;;;;12.40;4.00;;;;;;;;;;10416316;28;20204;-83
2023/04/25 20:57:28;;;;;;;11.03;5.27;;;;;;;;;;10428170;28;20200;-82
2023/04/25 21:02:49;;;;;;;22.23;7.27;;;;;;;;;;10412731;28;20292;-82
2023/04/25 21:08:11;;;;;;;20.70;7.27;;;;;;;;;;10360152;28;20228;-83
2023/04/25 21:13:33;;;;;;;25.13;9.57;;;;;;;;;;10402443;28;20434;-83
2023/04/25 21:18:55;;;;;;;30.40;11.23;;;;;;;;;;10397548;28;20488;-83
2023/04/25 21:24:16;;;;;;;23.80;7.90;;;;;;;;;;10389934;28;20232;-83
2023/04/25 21:29:38;;;;;;;18.57;7.03;;;;;;;;;;10385757;28;20273;-82
2023/04/25 21:34:59;;;;;;;17.20;6.70;;;;;;;;;;10404728;28;20223;-83
2023/04/25 21:40:21;;;;;;;21.43;7.67;;;;;;;;;;10398895;28;20201;-82
2023/04/25 21:45:43;;;;;;;18.43;6.53;;;;;;;;;;10399073;28;20244;-82
2023/04/25 21:51:17;;;;;;;14.87;4.27;;;;;;;;;;10397953;28;20209;-82
2023/04/25 21:56:39;;;;;;;15.10;3.83;;;;;;;;;;10401570;28;20199;-82
2023/04/25 22:02:00;;;;;;;7.10;3.13;;;;;;;;;;10388483;28;20197;-82
2023/04/25 22:07:22;;;;;;;11.53;3.20;;;;;;;;;;10397979;28;20277;-82
2023/04/25 22:12:44;;;;;;;8.27;3.20;;;;;;;;;;10397608;28;20388;-82
2023/04/25 22:18:05;;;;;;;9.07;2.97;;;;;;;;;;10392391;28;20198;-82
2023/04/25 22:23:27;;;;;;;10.77;3.30;;;;;;;;;;10424259;28;20244;-82
2023/04/25 22:28:50;;;;;;;7.30;2.93;;;;;;;;;;10383629;28;20200;-82
2023/04/25 22:34:12;;;;;;;6.23;2.50;;;;;;;;;;10402471;28;20230;-82
2023/04/25 22:39:34;;;;;;;12.67;2.90;;;;;;;;;;10370595;28;20203;-83
2023/04/25 22:44:55;;;;;;;9.67;3.20;;;;;;;;;;10355899;28;20258;-82
2023/04/25 22:50:18;;;;;;;10.83;2.87;;;;;;;;;;10376903;28;20200;-82
2023/04/25 22:55:40;;;;;;;6.27;2.20;;;;;;;;;;10414843;28;20202;-82
2023/04/25 23:01:01;;;;;;;11.03;2.53;;;7.60;93.00;;;;;;10435076;28;20209;-82
2023/04/25 23:06:23;;;;;;;9.90;3.07;;;7.40;95.60;;;;;;10371698;28;20540;-81
2023/04/25 23:11:44;;;;;;;10.50;3.00;;;7.30;95.20;;;;;;10384190;28;20216;-82
2023/04/25 23:17:06;;;;;;;11.33;3.27;;;7.20;96.60;;;;;;10422908;28;20384;-81
2023/04/25 23:22:28;;;;;;;6.63;2.70;;;7.10;96.90;;;;;;10387105;28;20236;-82
2023/04/25 23:27:49;;;;;;;12.50;2.63;;;7.00;97.70;;;;;;10381386;28;20199;-82
2023/04/25 23:33:11;;;;;;;10.23;3.17;;;6.90;97.60;;;;;;10423659;28;20254;-82
2023/04/25 23:38:32;;;;;;;6.00;2.40;;;6.80;98.90;;;;;;10422110;28;20381;-82
2023/04/25 23:43:54;;;;;;;9.77;2.47;;;6.80;98.10;;;;;;10403498;28;20237;-82
2023/04/25 23:49:15;;;;;;;9.47;2.87;;;6.80;98.80;;;;;;10435931;28;20201;-83
2023/04/25 23:54:37;;;;;;;9.10;2.53;;;6.70;98.60;;;;;;10370499;28;20213;-82
2023/04/25 23:59:58;;;;;;;9.60;2.93;;;6.70;99.00;;;;;;10373057;28;20384;-82
